createdAt,value
2017-09-10T00:00:00.651Z,19.18
2017-09-10T00:01:10.260Z,19.22
2017-09-10T00:02:19.233Z,19.06
2017-09-10T00:03:28.223Z,19.08
2017-09-10T00:04:36.882Z,19.02
2017-09-10T00:05:46.497Z,18.98
2017-09-10T00:06:56.129Z,18.99
2017-09-10T00:08:05.087Z,19.07
2017-09-10T00:09:14.367Z,19.04
2017-09-10T00:10:23.024Z,19
2017-09-10T00:11:31.679Z,19.02
2017-09-10T00:12:41.285Z,18.94
2017-09-10T00:13:50.583Z,19
2017-09-10T00:14:59.864Z,18.98
2017-09-10T00:16:08.838Z,19.02
2017-09-10T00:17:17.487Z,18.99
2017-09-10T00:18:27.086Z,18.95
2017-09-10T00:19:36.367Z,19.04
2017-09-10T00:20:45.346Z,18.99
2017-09-10T00:21:53.996Z,18.92
2017-09-10T00:23:02.980Z,19
2017-09-10T00:24:12.889Z,19
2017-09-10T00:25:21.561Z,18.94
2017-09-10T00:26:30.225Z,18.99
2017-09-10T00:27:39.819Z,18.99
2017-09-10T00:28:48.821Z,18.92
2017-09-10T00:29:57.806Z,18.95
2017-09-10T00:31:06.782Z,18.98
2017-09-10T00:32:15.768Z,18.92
2017-09-10T00:33:24.736Z,18.9
2017-09-10T00:34:33.397Z,18.91
2017-09-10T00:35:42.685Z,18.9
2017-09-10T00:36:51.975Z,18.9
2017-09-10T00:38:01.248Z,18.81
2017-09-10T00:39:10.207Z,18.84
2017-09-10T00:40:18.856Z,18.78
2017-09-10T00:41:28.146Z,18.8
2017-09-10T00:42:37.180Z,18.72
2017-09-10T00:43:46.150Z,18.7
2017-09-10T00:44:55.126Z,18.58
2017-09-10T00:46:04.089Z,18.62
2017-09-10T00:47:13.378Z,18.55
2017-09-10T00:48:22.357Z,18.54
2017-09-10T00:49:31.970Z,18.54
2017-09-10T00:50:40.960Z,18.52
2017-09-10T00:51:50.252Z,18.51
2017-09-10T00:52:59.527Z,18.5
2017-09-10T00:54:09.115Z,18.55
2017-09-10T00:55:18.083Z,18.48
2017-09-10T00:56:27.365Z,18.51
2017-09-10T00:57:36.647Z,18.58
2017-09-10T00:58:45.313Z,18.5
2017-09-10T00:59:54.286Z,18.6
2017-09-10T01:01:03.583Z,18.65
2017-09-10T01:02:12.557Z,18.58
2017-09-10T01:03:22.155Z,18.73
2017-09-10T01:04:31.141Z,18.67
2017-09-10T01:05:40.740Z,18.58
2017-09-10T01:06:49.726Z,18.55
2017-09-10T01:07:59.015Z,18.62
2017-09-10T01:09:08.322Z,18.57
2017-09-10T01:10:16.971Z,18.6
2017-09-10T01:11:26.255Z,18.55
2017-09-10T01:12:34.909Z,18.57
2017-09-10T01:13:43.930Z,18.62
2017-09-10T01:14:53.236Z,18.6
2017-09-10T01:16:02.210Z,18.52
2017-09-10T01:17:11.178Z,18.55
2017-09-10T01:18:19.840Z,18.58
2017-09-10T01:19:29.115Z,18.58
2017-09-10T01:20:37.775Z,18.6
2017-09-10T01:21:47.051Z,18.54
2017-09-10T01:22:55.715Z,18.45
2017-09-10T01:24:04.681Z,18.51
2017-09-10T01:25:14.290Z,18.5
2017-09-10T01:26:23.266Z,18.45
2017-09-10T01:27:32.869Z,18.42
2017-09-10T01:28:42.162Z,18.5
2017-09-10T01:29:51.760Z,18.42
2017-09-10T01:31:00.762Z,18.44
2017-09-10T01:32:09.401Z,18.44
2017-09-10T01:33:18.709Z,18.44
2017-09-10T01:34:27.352Z,18.44
2017-09-10T01:35:36.650Z,18.37
2017-09-10T01:36:45.935Z,18.39
2017-09-10T01:37:54.923Z,18.44
2017-09-10T01:39:03.883Z,18.39
2017-09-10T01:40:12.879Z,18.33
2017-09-10T01:41:22.171Z,18.35
2017-09-10T01:42:30.858Z,18.35
2017-09-10T01:43:39.517Z,18.33
2017-09-10T01:44:48.813Z,18.44
2017-09-10T01:45:57.469Z,18.37
2017-09-10T01:47:06.752Z,18.33
2017-09-10T01:48:15.400Z,18.32
2017-09-10T01:49:24.372Z,18.29
2017-09-10T01:50:33.345Z,18.35
2017-09-10T01:51:42.320Z,18.35
2017-09-10T01:52:51.284Z,18.37
2017-09-10T01:54:00.568Z,18.26
2017-09-10T01:55:09.539Z,18.32
2017-09-10T01:56:19.463Z,18.33
2017-09-10T01:57:29.059Z,18.29
2017-09-10T01:58:38.342Z,18.29
2017-09-10T01:59:47.305Z,18.27
2017-09-10T02:00:56.744Z,18.26
2017-09-10T02:02:05.721Z,18.3
2017-09-10T02:03:14.695Z,18.27
2017-09-10T02:04:23.354Z,18.29
2017-09-10T02:05:32.646Z,18.3
2017-09-10T02:06:41.992Z,18.33
2017-09-10T02:07:50.644Z,18.35
2017-09-10T02:09:00.246Z,18.32
2017-09-10T02:10:08.951Z,18.32
2017-09-10T02:11:17.621Z,18.2
2017-09-10T02:12:26.598Z,18.23
2017-09-10T02:13:35.873Z,18.3
2017-09-10T02:14:44.516Z,18.27
2017-09-10T02:15:53.490Z,18.3
2017-09-10T02:17:02.145Z,18.29
2017-09-10T02:18:11.109Z,18.29
2017-09-10T02:19:20.416Z,18.26
2017-09-10T02:20:29.705Z,18.41
2017-09-10T02:21:38.674Z,18.44
2017-09-10T02:22:47.331Z,18.47
2017-09-10T02:23:56.633Z,18.54
2017-09-10T02:25:05.614Z,18.65
2017-09-10T02:26:14.285Z,18.67
2017-09-10T02:27:23.881Z,18.57
2017-09-10T02:28:32.865Z,18.57
2017-09-10T02:29:41.827Z,18.55
2017-09-10T02:30:50.807Z,18.5
2017-09-10T02:32:00.094Z,18.52
2017-09-10T02:33:09.389Z,18.48
2017-09-10T02:34:18.693Z,18.48
2017-09-10T02:35:27.662Z,18.42
2017-09-10T02:36:36.956Z,18.45
2017-09-10T02:37:46.897Z,18.44
2017-09-10T02:38:56.184Z,18.33
2017-09-10T02:40:05.155Z,18.29
2017-09-10T02:41:13.818Z,18.33
2017-09-10T02:42:22.464Z,18.32
2017-09-10T02:43:31.436Z,18.25
2017-09-10T02:44:40.097Z,18.18
2017-09-10T02:45:49.062Z,18.15
2017-09-10T02:46:58.043Z,18.17
2017-09-10T02:48:06.703Z,18.2
2017-09-10T02:49:16.301Z,18.1
2017-09-10T02:50:24.967Z,18.2
2017-09-10T02:51:34.258Z,18.29
2017-09-10T02:52:43.851Z,18.47
2017-09-10T02:53:53.133Z,18.54
2017-09-10T02:55:02.116Z,18.48
2017-09-10T02:56:11.114Z,18.41
2017-09-10T02:57:20.811Z,18.5
2017-09-10T02:58:29.774Z,18.51
2017-09-10T02:59:38.426Z,18.54
2017-09-10T03:00:47.711Z,18.55
2017-09-10T03:01:56.990Z,18.55
2017-09-10T03:03:06.275Z,18.62
2017-09-10T03:04:15.942Z,18.67
2017-09-10T03:05:25.266Z,18.6
2017-09-10T03:06:34.553Z,18.58
2017-09-10T03:07:43.843Z,18.52
2017-09-10T03:08:53.138Z,18.47
2017-09-10T03:10:01.784Z,18.48
2017-09-10T03:11:10.751Z,18.45
2017-09-10T03:12:19.723Z,18.48
2017-09-10T03:13:28.687Z,18.44
2017-09-10T03:14:37.659Z,18.39
2017-09-10T03:15:46.945Z,18.26
2017-09-10T03:16:55.918Z,18.36
2017-09-10T03:18:04.885Z,18.3
2017-09-10T03:19:14.175Z,18.3
2017-09-10T03:20:23.469Z,18.18
2017-09-10T03:21:32.142Z,18.21
2017-09-10T03:22:40.794Z,18.11
2017-09-10T03:23:50.082Z,18.12
2017-09-10T03:24:59.362Z,18.15
2017-09-10T03:26:08.340Z,18.2
2017-09-10T03:27:17.618Z,18.05
2017-09-10T03:28:26.586Z,18
2017-09-10T03:29:35.545Z,18
2017-09-10T03:30:44.203Z,18.03
2017-09-10T03:31:53.496Z,17.93
2017-09-10T03:33:03.101Z,18.07
2017-09-10T03:34:12.399Z,17.93
2017-09-10T03:35:22.009Z,17.93
2017-09-10T03:36:30.983Z,18.07
2017-09-10T03:37:39.648Z,17.96
2017-09-10T03:38:48.942Z,17.93
2017-09-10T03:39:57.609Z,17.95
2017-09-10T03:41:06.641Z,18.05
2017-09-10T03:42:15.624Z,18.03
2017-09-10T03:43:24.598Z,17.95
2017-09-10T03:44:33.903Z,17.95
2017-09-10T03:45:42.561Z,17.99
2017-09-10T03:46:51.529Z,17.95
2017-09-10T03:48:00.193Z,18.05
2017-09-10T03:49:09.467Z,18.1
2017-09-10T03:50:18.447Z,18.25
2017-09-10T03:51:27.421Z,18.17
2017-09-10T03:52:36.389Z,18.17
2017-09-10T03:53:45.046Z,18.14
2017-09-10T03:54:53.707Z,18.18
2017-09-10T03:56:03.307Z,18.25
2017-09-10T03:57:12.590Z,18.35
2017-09-10T03:58:21.557Z,18.32
2017-09-10T03:59:30.223Z,18.26
2017-09-10T04:00:39.822Z,18.23
2017-09-10T04:01:48.805Z,18.17
2017-09-10T04:02:58.097Z,18.15
2017-09-10T04:04:07.055Z,18.17
2017-09-10T04:05:16.667Z,18.08
2017-09-10T04:06:25.319Z,18.14
2017-09-10T04:07:34.934Z,18.18
2017-09-10T04:08:43.898Z,18.18
2017-09-10T04:09:52.873Z,18.14
2017-09-10T04:11:01.857Z,18.15
2017-09-10T04:12:11.129Z,18.05
2017-09-10T04:13:19.776Z,18.1
2017-09-10T04:14:29.062Z,18.2
2017-09-10T04:15:37.724Z,18.15
2017-09-10T04:16:46.382Z,18.2
2017-09-10T04:17:55.377Z,18.21
2017-09-10T04:19:04.365Z,18.17
2017-09-10T04:20:13.647Z,18.07
2017-09-10T04:21:22.967Z,18.03
2017-09-10T04:22:32.251Z,18.07
2017-09-10T04:23:41.232Z,18.03
2017-09-10T04:24:49.879Z,18.18
2017-09-10T04:25:58.852Z,18.26
2017-09-10T04:27:08.142Z,18.29
2017-09-10T04:28:16.801Z,18.41
2017-09-10T04:29:26.076Z,18.33
2017-09-10T04:30:35.677Z,18.29
2017-09-10T04:31:44.643Z,18.33
2017-09-10T04:32:53.924Z,18.33
2017-09-10T04:34:03.208Z,18.36
2017-09-10T04:35:11.856Z,18.29
2017-09-10T04:36:20.841Z,18.37
2017-09-10T04:37:29.799Z,18.29
2017-09-10T04:38:39.432Z,18.32
2017-09-10T04:39:48.708Z,18.27
2017-09-10T04:40:57.689Z,18.3
2017-09-10T04:42:06.655Z,18.23
2017-09-10T04:43:15.312Z,18.25
2017-09-10T04:44:23.964Z,18.23
2017-09-10T04:45:32.632Z,18.2
2017-09-10T04:46:41.602Z,18.2
2017-09-10T04:47:50.891Z,18.11
2017-09-10T04:48:59.539Z,18.14
2017-09-10T04:50:08.504Z,18.11
2017-09-10T04:51:17.474Z,18.08
2017-09-10T04:52:26.438Z,18.1
2017-09-10T04:53:36.029Z,17.97
2017-09-10T04:54:44.677Z,17.96
2017-09-10T04:55:53.638Z,17.9
2017-09-10T04:57:02.930Z,17.86
2017-09-10T04:58:11.581Z,17.95
2017-09-10T04:59:20.547Z,17.81
2017-09-10T05:00:29.841Z,17.81
2017-09-10T05:01:38.817Z,17.82
2017-09-10T05:02:48.102Z,17.81
2017-09-10T05:03:56.755Z,17.86
2017-09-10T05:05:06.042Z,17.82
2017-09-10T05:06:15.043Z,17.87
2017-09-10T05:07:24.316Z,17.87
2017-09-10T05:08:32.990Z,17.74
2017-09-10T05:09:42.015Z,17.75
2017-09-10T05:10:51.296Z,17.79
2017-09-10T05:12:00.281Z,17.79
2017-09-10T05:13:08.937Z,17.86
2017-09-10T05:14:17.908Z,17.82
2017-09-10T05:15:26.875Z,17.93
2017-09-10T05:16:36.149Z,17.92
2017-09-10T05:17:44.812Z,18.02
2017-09-10T05:18:54.087Z,17.97
2017-09-10T05:20:03.053Z,18
2017-09-10T05:21:12.654Z,18.02
2017-09-10T05:22:21.939Z,18.07
2017-09-10T05:23:31.541Z,17.99
2017-09-10T05:24:40.524Z,18
2017-09-10T05:25:49.196Z,17.93
2017-09-10T05:26:58.168Z,17.87
2017-09-10T05:28:06.827Z,17.97
2017-09-10T05:29:15.805Z,17.99
2017-09-10T05:30:25.088Z,17.95
2017-09-10T05:31:34.080Z,17.96
2017-09-10T05:32:42.741Z,17.99
2017-09-10T05:33:52.024Z,17.97
2017-09-10T05:35:00.989Z,17.96
2017-09-10T05:36:09.972Z,17.99
2017-09-10T05:37:19.275Z,18
2017-09-10T05:38:28.237Z,17.96
2017-09-10T05:39:37.212Z,17.92
2017-09-10T05:40:46.180Z,18
2017-09-10T05:41:55.524Z,17.87
2017-09-10T05:43:04.521Z,17.87
2017-09-10T05:44:13.816Z,18.03
2017-09-10T05:45:22.485Z,17.93
2017-09-10T05:46:32.085Z,17.87
2017-09-10T05:47:41.056Z,17.93
2017-09-10T05:48:50.027Z,17.97
2017-09-10T05:49:59.644Z,18
2017-09-10T05:51:08.928Z,18.1
2017-09-10T05:52:17.894Z,18.21
2017-09-10T05:53:27.511Z,18.26
2017-09-10T05:54:36.492Z,18.29
2017-09-10T05:55:45.792Z,18.23
2017-09-10T05:56:54.551Z,18.29
2017-09-10T05:58:03.901Z,18.26
2017-09-10T05:59:12.858Z,18.3
2017-09-10T06:00:21.817Z,18.21
2017-09-10T06:01:30.792Z,18.15
2017-09-10T06:02:40.084Z,18.36
2017-09-10T06:03:48.822Z,18.27
2017-09-10T06:04:58.746Z,18.23
2017-09-10T06:06:08.468Z,18.3
2017-09-10T06:07:17.639Z,18.36
2017-09-10T06:08:26.736Z,18.51
2017-09-10T06:09:35.415Z,18.48
2017-09-10T06:10:44.395Z,18.62
2017-09-10T06:11:53.050Z,18.62
2017-09-10T06:13:02.350Z,18.62
2017-09-10T06:14:11.952Z,18.69
2017-09-10T06:15:21.570Z,18.73
2017-09-10T06:16:30.579Z,18.72
2017-09-10T06:17:40.262Z,18.76
2017-09-10T06:18:49.146Z,18.84
2017-09-10T06:19:58.114Z,18.85
2017-09-10T06:21:07.401Z,18.95
2017-09-10T06:22:16.375Z,19
2017-09-10T06:23:25.356Z,18.95
2017-09-10T06:24:34.324Z,19.02
2017-09-10T06:25:43.288Z,18.95
2017-09-10T06:26:51.950Z,19.04
2017-09-10T06:28:01.240Z,18.94
2017-09-10T06:29:09.901Z,19.02
2017-09-10T06:30:18.871Z,19.07
2017-09-10T06:31:27.843Z,19.1
2017-09-10T06:32:37.116Z,19.14
2017-09-10T06:33:46.406Z,19.11
2017-09-10T06:34:55.080Z,19.1
2017-09-10T06:36:04.060Z,19.21
2017-09-10T06:37:13.053Z,19.1
2017-09-10T06:38:21.713Z,19.1
2017-09-10T06:39:30.993Z,19.11
2017-09-10T06:40:39.656Z,19.06
2017-09-10T06:41:48.945Z,19.07
2017-09-10T06:42:57.920Z,18.98
2017-09-10T06:44:07.524Z,18.9
2017-09-10T06:45:16.492Z,18.81
2017-09-10T06:46:25.153Z,18.87
2017-09-10T06:47:34.139Z,18.87
2017-09-10T06:48:43.105Z,18.78
2017-09-10T06:49:52.081Z,18.75
2017-09-10T06:51:01.365Z,18.8
2017-09-10T06:52:10.650Z,18.87
2017-09-10T06:53:20.248Z,18.91
2017-09-10T06:54:29.218Z,18.99
2017-09-10T06:55:38.190Z,19
2017-09-10T06:56:47.165Z,19.06
2017-09-10T06:57:56.199Z,19.07
2017-09-10T06:59:04.847Z,18.99
2017-09-10T07:00:14.205Z,19.06
2017-09-10T07:01:22.872Z,19.13
2017-09-10T07:02:31.843Z,19.32
2017-09-10T07:03:41.435Z,19.26
2017-09-10T07:04:50.728Z,19.33
2017-09-10T07:05:59.382Z,19.32
2017-09-10T07:07:08.367Z,19.47
2017-09-10T07:08:17.998Z,19.46
2017-09-10T07:09:27.275Z,19.51
2017-09-10T07:10:36.270Z,19.41
2017-09-10T07:11:44.921Z,19.41
2017-09-10T07:12:53.887Z,19.46
2017-09-10T07:14:02.854Z,19.48
2017-09-10T07:15:11.851Z,19.56
2017-09-10T07:16:21.195Z,19.59
2017-09-10T07:17:30.195Z,19.66
2017-09-10T07:18:39.213Z,19.55
2017-09-10T07:19:48.837Z,19.61
2017-09-10T07:20:58.478Z,19.66
2017-09-10T07:22:07.185Z,19.68
2017-09-10T07:23:16.491Z,19.62
2017-09-10T07:24:25.146Z,19.78
2017-09-10T07:25:34.744Z,19.81
2017-09-10T07:26:43.425Z,19.83
2017-09-10T07:27:52.740Z,19.81
2017-09-10T07:29:01.405Z,19.91
2017-09-10T07:30:10.081Z,19.96
2017-09-10T07:31:19.064Z,19.98
2017-09-10T07:32:28.047Z,19.99
2017-09-10T07:33:37.318Z,20.16
2017-09-10T07:34:46.284Z,20.05
2017-09-10T07:35:55.583Z,20.06
2017-09-10T07:37:04.240Z,19.99
2017-09-10T07:38:13.846Z,20.03
2017-09-10T07:39:22.505Z,20.03
2017-09-10T07:40:31.500Z,20.02
2017-09-10T07:41:40.468Z,20.01
2017-09-10T07:42:49.427Z,19.98
2017-09-10T07:43:58.715Z,19.98
2017-09-10T07:45:07.713Z,19.98
2017-09-10T07:46:16.693Z,19.99
2017-09-10T07:47:25.677Z,19.94
2017-09-10T07:48:34.952Z,20.01
2017-09-10T07:49:44.244Z,19.96
2017-09-10T07:50:52.925Z,19.83
2017-09-10T07:52:01.889Z,19.86
2017-09-10T07:53:10.877Z,19.96
2017-09-10T07:54:20.160Z,20.11
2017-09-10T07:55:29.446Z,20.13
2017-09-10T07:56:38.096Z,20.26
2017-09-10T07:57:46.757Z,20.42
2017-09-10T07:58:55.738Z,20.47
2017-09-10T08:00:05.040Z,20.38
2017-09-10T08:01:14.003Z,20.62
2017-09-10T08:02:22.661Z,20.73
2017-09-10T08:03:31.372Z,20.7
2017-09-10T08:04:40.343Z,20.79
2017-09-10T08:05:49.352Z,20.87
2017-09-10T08:06:58.638Z,20.99
2017-09-10T08:08:07.927Z,20.98
2017-09-10T08:09:17.209Z,21.09
2017-09-10T08:10:26.490Z,21.07
2017-09-10T08:11:35.779Z,21.21
2017-09-10T08:12:44.750Z,21.25
2017-09-10T08:13:53.441Z,21.27
2017-09-10T08:15:02.421Z,21.4
2017-09-10T08:16:11.393Z,21.46
2017-09-10T08:17:20.383Z,21.5
2017-09-10T08:18:29.036Z,21.52
2017-09-10T08:19:38.634Z,21.59
2017-09-10T08:20:47.287Z,21.65
2017-09-10T08:21:56.573Z,21.65
2017-09-10T08:23:05.547Z,21.8
2017-09-10T08:24:14.517Z,21.9
2017-09-10T08:25:23.809Z,21.91
2017-09-10T08:26:32.867Z,21.9
2017-09-10T08:27:42.244Z,22.02
2017-09-10T08:28:51.235Z,21.98
2017-09-10T08:29:59.900Z,22.12
2017-09-10T08:31:08.885Z,22.14
2017-09-10T08:32:17.576Z,22.22
2017-09-10T08:33:27.186Z,22.24
2017-09-10T08:34:35.892Z,22.22
2017-09-10T08:35:44.883Z,22.31
2017-09-10T08:36:54.188Z,22.28
2017-09-10T08:38:03.190Z,22.35
2017-09-10T08:39:12.785Z,22.46
2017-09-10T08:40:22.069Z,22.45
2017-09-10T08:41:31.044Z,22.45
2017-09-10T08:42:40.344Z,22.45
2017-09-10T08:43:49.640Z,22.57
2017-09-10T08:44:58.614Z,22.54
2017-09-10T08:46:07.906Z,22.58
2017-09-10T08:47:16.871Z,22.52
2017-09-10T08:48:26.174Z,22.6
2017-09-10T08:49:35.165Z,22.61
2017-09-10T08:50:44.446Z,22.58
2017-09-10T08:51:53.740Z,22.64
2017-09-10T08:53:03.025Z,22.67
2017-09-10T08:54:12.006Z,22.79
2017-09-10T08:55:20.998Z,22.77
2017-09-10T08:56:30.294Z,22.79
2017-09-10T08:57:39.256Z,22.85
2017-09-10T08:58:48.539Z,22.88
2017-09-10T08:59:57.537Z,22.88
2017-09-10T09:01:06.507Z,22.88
2017-09-10T09:02:16.223Z,22.86
2017-09-10T09:03:24.923Z,22.9
2017-09-10T09:04:33.923Z,22.94
2017-09-10T09:05:42.943Z,22.94
2017-09-10T09:06:52.544Z,23.02
2017-09-10T09:08:01.222Z,22.98
2017-09-10T09:09:10.943Z,22.98
2017-09-10T09:10:20.255Z,22.97
2017-09-10T09:11:29.218Z,22.9
2017-09-10T09:12:38.505Z,22.79
2017-09-10T09:13:47.796Z,22.67
2017-09-10T09:14:56.770Z,22.49
2017-09-10T09:16:06.129Z,22.33
2017-09-10T09:17:15.106Z,22.28
2017-09-10T09:18:24.083Z,22.22
2017-09-10T09:19:33.075Z,22.14
2017-09-10T09:20:42.364Z,21.96
2017-09-10T09:21:51.385Z,21.91
2017-09-10T09:23:00.728Z,21.96
2017-09-10T09:24:09.399Z,21.84
2017-09-10T09:25:18.893Z,21.74
2017-09-10T09:26:28.193Z,21.74
2017-09-10T09:27:37.560Z,21.64
2017-09-10T09:28:46.875Z,21.59
2017-09-10T09:29:55.865Z,21.56
2017-09-10T09:31:04.862Z,21.54
2017-09-10T09:32:14.357Z,21.54
2017-09-10T09:33:25.102Z,21.37
2017-09-10T09:34:33.812Z,21.52
2017-09-10T09:35:42.497Z,21.43
2017-09-10T09:36:52.385Z,21.34
2017-09-10T09:38:01.499Z,21.28
2017-09-10T09:39:10.470Z,21.25
2017-09-10T09:42:51.862Z,21.29
2017-09-10T09:44:01.178Z,21.29
2017-09-10T09:45:10.149Z,21.35
2017-09-10T09:46:18.831Z,21.4
2017-09-10T09:47:28.122Z,21.49
2017-09-10T09:48:37.099Z,21.58
2017-09-10T09:49:46.429Z,21.58
2017-09-10T09:50:55.411Z,21.65
2017-09-10T09:52:05.029Z,21.69
2017-09-10T09:53:14.328Z,21.72
2017-09-10T09:54:23.853Z,21.74
2017-09-10T09:55:33.976Z,21.74
2017-09-10T09:56:43.165Z,21.83
2017-09-10T09:57:52.471Z,21.75
2017-09-10T09:59:01.359Z,21.86
2017-09-10T10:00:10.336Z,21.92
2017-09-10T10:01:18.990Z,21.92
2017-09-10T10:02:28.592Z,21.91
2017-09-10T10:03:37.377Z,21.88
2017-09-10T10:04:46.792Z,22
2017-09-10T10:05:56.189Z,21.91
2017-09-10T10:07:05.187Z,22
2017-09-10T10:08:13.913Z,21.9
2017-09-10T10:09:23.238Z,21.96
2017-09-10T10:10:31.929Z,21.96
2017-09-10T10:11:41.852Z,21.98
2017-09-10T10:12:51.146Z,21.96
2017-09-10T10:14:00.145Z,21.94
2017-09-10T10:15:09.435Z,21.92
2017-09-10T10:16:18.413Z,21.91
2017-09-10T10:17:27.082Z,21.88
2017-09-10T10:18:35.753Z,21.91
2017-09-10T10:19:44.740Z,21.91
2017-09-10T10:20:54.031Z,22
2017-09-10T10:22:03.625Z,22
2017-09-10T10:23:12.301Z,21.99
2017-09-10T10:24:21.580Z,21.96
2017-09-10T10:25:30.236Z,22.03
2017-09-10T10:26:38.912Z,21.99
2017-09-10T10:27:47.577Z,21.96
2017-09-10T10:28:56.545Z,21.99
2017-09-10T10:30:05.844Z,21.99
2017-09-10T10:31:15.218Z,21.99
2017-09-10T10:32:24.186Z,22.03
2017-09-10T10:33:33.157Z,21.96
2017-09-10T10:34:42.120Z,22.06
2017-09-10T10:35:50.790Z,22.05
2017-09-10T10:36:59.750Z,21.96
2017-09-10T10:38:08.723Z,21.96
2017-09-10T10:39:17.714Z,22.1
2017-09-10T10:40:26.696Z,22.14
2017-09-10T10:41:35.358Z,22.07
2017-09-10T10:42:44.028Z,22.05
2017-09-10T10:43:53.626Z,22.07
2017-09-10T10:45:02.608Z,22.06
2017-09-10T10:46:11.888Z,22.05
2017-09-10T10:47:20.552Z,22.02
2017-09-10T10:48:30.171Z,22.06
2017-09-10T10:49:39.142Z,22.02
2017-09-10T10:50:48.113Z,21.98
2017-09-10T10:51:56.787Z,22
2017-09-10T10:53:05.750Z,22
2017-09-10T10:54:15.391Z,22.07
2017-09-10T10:55:24.367Z,21.96
2017-09-10T10:56:33.654Z,21.94
2017-09-10T10:57:43.724Z,22.02
2017-09-10T10:58:52.695Z,21.99
2017-09-10T11:00:01.675Z,21.99
2017-09-10T11:01:10.640Z,21.98
2017-09-10T11:02:19.300Z,21.9
2017-09-10T11:03:28.285Z,21.88
2017-09-10T11:04:37.253Z,21.92
2017-09-10T11:05:46.237Z,21.92
2017-09-10T11:06:55.207Z,21.92
2017-09-10T11:08:03.864Z,21.74
2017-09-10T11:09:13.800Z,21.84
2017-09-10T11:10:22.456Z,21.77
2017-09-10T11:11:31.754Z,21.74
2017-09-10T11:12:40.721Z,21.74
2017-09-10T11:13:49.696Z,21.65
2017-09-10T11:14:58.377Z,21.67
2017-09-10T11:16:07.047Z,21.67
2017-09-10T11:17:15.713Z,21.65
2017-09-10T11:18:24.976Z,21.74
2017-09-10T11:19:34.577Z,21.68
2017-09-10T11:20:43.553Z,21.75
2017-09-10T11:21:52.510Z,21.77
2017-09-10T11:23:01.478Z,21.71
2017-09-10T11:24:10.798Z,21.69
2017-09-10T11:25:19.780Z,21.72
2017-09-10T11:26:28.781Z,21.75
2017-09-10T11:27:37.766Z,21.72
2017-09-10T11:28:46.430Z,21.68
2017-09-10T11:29:55.410Z,21.68
2017-09-10T11:31:05.332Z,21.69
2017-09-10T11:32:14.320Z,21.64
2017-09-10T11:33:24.230Z,21.56
2017-09-10T11:34:33.212Z,21.53
2017-09-10T11:36:16.005Z,21.54
2017-09-10T11:37:24.982Z,21.56
2017-09-10T11:38:33.938Z,21.52
2017-09-10T11:39:43.556Z,21.46
2017-09-10T11:40:52.514Z,21.49
2017-09-10T11:42:01.177Z,21.49
2017-09-10T11:43:09.836Z,21.37
2017-09-10T11:44:18.792Z,21.4
2017-09-10T11:45:27.768Z,21.42
2017-09-10T11:46:37.391Z,21.46
2017-09-10T11:47:46.669Z,21.37
2017-09-10T11:48:55.638Z,21.4
2017-09-10T11:50:04.930Z,21.44
2017-09-10T11:51:14.225Z,21.38
2017-09-10T11:52:23.191Z,21.34
2017-09-10T11:53:32.165Z,21.47
2017-09-10T11:54:42.060Z,21.43
2017-09-10T11:55:50.724Z,21.47
2017-09-10T11:57:00.009Z,21.44
2017-09-10T11:58:09.033Z,21.42
2017-09-10T11:59:18.272Z,21.43
2017-09-10T12:00:26.947Z,21.5
2017-09-10T12:01:35.902Z,21.49
2017-09-10T12:02:45.178Z,21.54
2017-09-10T12:03:54.468Z,21.58
2017-09-10T12:05:03.245Z,21.53
2017-09-10T12:06:12.227Z,21.59
2017-09-10T12:07:21.227Z,21.58
2017-09-10T12:08:31.202Z,21.52
2017-09-10T12:09:40.172Z,21.54
2017-09-10T12:10:49.181Z,21.58
2017-09-10T12:11:58.470Z,21.59
2017-09-10T12:13:07.439Z,21.53
2017-09-10T12:14:16.428Z,21.65
2017-09-10T12:15:25.416Z,21.64
2017-09-10T12:16:34.371Z,21.64
2017-09-10T12:17:43.358Z,21.62
2017-09-10T12:18:52.652Z,21.65
2017-09-10T12:20:01.981Z,21.69
2017-09-10T12:21:10.981Z,21.75
2017-09-10T12:22:20.227Z,21.8
2017-09-10T12:23:29.849Z,21.74
2017-09-10T12:24:39.156Z,21.82
2017-09-10T12:25:48.449Z,21.74
2017-09-10T12:26:57.414Z,21.69
2017-09-10T12:28:06.078Z,21.86
2017-09-10T12:29:15.050Z,21.86
2017-09-10T12:30:23.703Z,21.74
2017-09-10T12:31:32.989Z,21.83
2017-09-10T12:32:41.638Z,21.84
2017-09-10T12:33:50.304Z,21.84
2017-09-10T12:34:59.591Z,21.96
2017-09-10T12:36:08.568Z,21.99
2017-09-10T12:37:17.841Z,21.98
2017-09-10T12:38:26.815Z,22.02
2017-09-10T12:39:35.779Z,21.94
2017-09-10T12:40:45.078Z,22.05
2017-09-10T12:41:53.734Z,22.06
2017-09-10T12:43:03.014Z,22.09
2017-09-10T12:44:11.975Z,22.07
2017-09-10T12:45:20.940Z,22.09
2017-09-10T12:46:30.537Z,22.06
2017-09-10T12:47:39.513Z,22.1
2017-09-10T12:48:48.178Z,22.12
2017-09-10T12:49:57.812Z,22.06
2017-09-10T12:51:06.774Z,22.1
2017-09-10T12:52:16.052Z,22.21
2017-09-10T12:53:25.341Z,22.27
2017-09-10T12:54:34.315Z,22.21
2017-09-10T12:55:43.925Z,22.22
2017-09-10T12:56:52.914Z,22.22
2017-09-10T12:58:01.902Z,22.15
2017-09-10T12:59:10.876Z,22.21
2017-09-10T13:00:19.531Z,22.25
2017-09-10T13:01:28.212Z,22.22
2017-09-10T13:02:36.885Z,22.27
2017-09-10T13:03:45.875Z,22.28
2017-09-10T13:04:55.167Z,22.31
2017-09-10T13:06:04.134Z,22.27
2017-09-10T13:07:13.737Z,22.24
2017-09-10T13:08:23.026Z,22.24
2017-09-10T13:09:31.990Z,22.31
2017-09-10T13:10:40.993Z,22.31
2017-09-10T13:11:49.949Z,22.24
2017-09-10T13:12:59.234Z,22.27
2017-09-10T13:14:08.518Z,22.31
2017-09-10T13:15:17.518Z,22.27
2017-09-10T13:16:26.180Z,22.28
2017-09-10T13:17:35.180Z,22.28
2017-09-10T13:18:43.830Z,22.31
2017-09-10T13:19:53.438Z,22.25
2017-09-10T13:21:02.731Z,22.25
2017-09-10T13:22:12.363Z,22.37
2017-09-10T13:23:21.007Z,22.27
2017-09-10T13:24:30.619Z,22.31
2017-09-10T13:25:39.578Z,22.31
2017-09-10T13:26:48.553Z,22.42
2017-09-10T13:27:57.222Z,22.45
2017-09-10T13:29:06.520Z,22.46
2017-09-10T13:30:15.817Z,22.46
2017-09-10T13:31:25.094Z,22.47
2017-09-10T13:32:34.376Z,22.47
2017-09-10T13:33:43.056Z,22.39
2017-09-10T13:34:51.708Z,22.51
2017-09-10T13:36:01.007Z,22.55
2017-09-10T13:37:09.664Z,22.49
2017-09-10T13:38:18.642Z,22.51
2017-09-10T13:39:27.306Z,22.54
2017-09-10T13:40:36.300Z,22.46
2017-09-10T13:41:45.268Z,22.58
2017-09-10T13:42:54.553Z,22.47
2017-09-10T13:44:03.521Z,22.46
2017-09-10T13:45:12.796Z,22.57
2017-09-10T13:46:21.487Z,22.49
2017-09-10T13:47:30.154Z,22.43
2017-09-10T13:48:38.808Z,22.39
2017-09-10T13:49:48.098Z,22.39
2017-09-10T13:50:57.376Z,22.45
2017-09-10T13:52:06.338Z,22.37
2017-09-10T13:53:14.995Z,22.46
2017-09-10T13:54:24.280Z,22.49
2017-09-10T13:55:33.279Z,22.43
2017-09-10T13:56:42.576Z,22.45
2017-09-10T13:57:51.285Z,22.4
2017-09-10T13:59:00.242Z,22.45
2017-09-10T14:00:08.902Z,22.46
2017-09-10T14:01:17.862Z,22.54
2017-09-10T14:02:26.554Z,22.58
2017-09-10T14:03:35.539Z,22.58
2017-09-10T14:04:44.506Z,22.58
2017-09-10T14:05:53.486Z,22.57
2017-09-10T14:07:02.769Z,22.62
2017-09-10T14:08:12.077Z,22.6
2017-09-10T14:09:21.048Z,22.57
2017-09-10T14:10:30.327Z,22.68
2017-09-10T14:11:39.620Z,22.65
2017-09-10T14:12:49.249Z,22.58
2017-09-10T14:13:58.532Z,22.64
2017-09-10T14:15:07.312Z,22.57
2017-09-10T14:16:16.962Z,22.6
2017-09-10T14:17:26.640Z,22.65
2017-09-10T14:18:35.310Z,22.67
2017-09-10T14:19:45.028Z,22.58
2017-09-10T14:20:54.145Z,22.6
2017-09-10T14:22:03.239Z,22.61
2017-09-10T14:23:13.210Z,22.6
2017-09-10T14:24:23.452Z,22.61
2017-09-10T14:25:32.192Z,22.58
2017-09-10T14:26:41.511Z,22.57
2017-09-10T14:27:50.176Z,22.52
2017-09-10T14:28:59.166Z,22.58
2017-09-10T14:30:08.458Z,22.54
2017-09-10T14:31:18.071Z,22.49
2017-09-10T14:32:27.678Z,22.42
2017-09-10T14:33:36.655Z,22.39
2017-09-10T14:34:45.639Z,22.46
2017-09-10T14:35:55.247Z,22.51
2017-09-10T14:37:05.151Z,22.46
2017-09-10T14:38:14.126Z,22.52
2017-09-10T14:39:23.737Z,22.43
2017-09-10T14:40:33.062Z,22.45
2017-09-10T14:41:42.101Z,22.43
2017-09-10T14:42:51.380Z,22.45
2017-09-10T14:44:00.368Z,22.43
2017-09-10T14:45:09.361Z,22.45
2017-09-10T14:46:18.325Z,22.39
2017-09-10T14:47:27.941Z,22.39
2017-09-10T14:48:36.596Z,22.39
2017-09-10T14:49:45.650Z,22.37
2017-09-10T14:50:54.615Z,22.4
2017-09-10T14:52:03.901Z,22.36
2017-09-10T14:53:12.871Z,22.43
2017-09-10T14:54:22.158Z,22.39
2017-09-10T14:55:30.871Z,22.39
2017-09-10T14:56:39.541Z,22.33